createdAt,value
2019-02-06T00:02:20.591Z,-4.25
2019-02-06T00:04:47.649Z,-4.22
2019-02-06T00:07:14.686Z,-4.16
2019-02-06T00:09:41.738Z,-4.13
2019-02-06T00:12:08.780Z,-4.10
2019-02-06T00:14:36.122Z,-4.11
2019-02-06T00:17:03.340Z,-4.07
2019-02-06T00:19:30.358Z,-4.10
2019-02-06T00:21:57.391Z,-4.19
2019-02-06T00:24:24.462Z,-4.24
2019-02-06T00:26:51.509Z,-4.19
2019-02-06T00:29:18.561Z,-4.14
2019-02-06T00:31:45.574Z,-4.08
2019-02-06T00:34:12.803Z,-4.06
2019-02-06T00:36:39.823Z,-4.05
2019-02-06T00:39:08.307Z,-4.05
2019-02-06T00:41:35.336Z,-4.08
2019-02-06T00:44:02.366Z,-4.15
2019-02-06T00:46:29.504Z,-4.20
2019-02-06T00:48:56.567Z,-4.19
2019-02-06T00:51:23.602Z,-4.17
2019-02-06T00:53:50.647Z,-4.20
2019-02-06T00:56:17.696Z,-4.26
2019-02-06T00:58:44.725Z,-4.28
2019-02-06T01:01:11.865Z,-4.30
2019-02-06T01:03:38.898Z,-4.37
2019-02-06T01:06:06.048Z,-4.43
2019-02-06T01:08:33.087Z,-4.52
2019-02-06T01:11:00.432Z,-4.59
2019-02-06T01:13:27.470Z,-4.59
2019-02-06T01:15:54.517Z,-4.56
2019-02-06T01:18:21.554Z,-4.54
2019-02-06T01:20:48.605Z,-4.52
2019-02-06T01:23:16.506Z,-4.55
2019-02-06T01:25:43.623Z,-4.55
2019-02-06T01:28:10.672Z,-4.53
2019-02-06T01:30:45.519Z,-4.55
2019-02-06T01:33:12.821Z,-4.56
2019-02-06T01:35:49.663Z,-4.52
2019-02-06T01:38:08.796Z,-4.57
2019-02-06T01:40:35.831Z,-4.60
2019-02-06T01:43:02.872Z,-4.61
2019-02-06T01:45:29.909Z,-4.67
2019-02-06T01:47:57.269Z,-4.77
2019-02-06T01:50:24.314Z,-4.79
2019-02-06T01:52:51.368Z,-4.79
2019-02-06T01:55:18.392Z,-4.76
2019-02-06T01:57:45.443Z,-4.73
2019-02-06T02:00:14.753Z,-4.74
2019-02-06T02:02:41.797Z,-4.74
2019-02-06T02:05:09.048Z,-4.76
2019-02-06T02:07:36.072Z,-4.82
2019-02-06T02:10:04.286Z,-4.85
2019-02-06T02:12:31.427Z,-4.89
2019-02-06T02:14:58.447Z,-4.87
2019-02-06T02:17:25.474Z,-4.87
2019-02-06T02:19:52.535Z,-4.88
2019-02-06T02:22:19.574Z,-4.87
2019-02-06T02:24:46.819Z,-4.86
2019-02-06T02:27:13.870Z,-4.86
2019-02-06T02:29:40.921Z,-4.91
2019-02-06T02:32:07.951Z,-4.97
2019-02-06T02:34:34.968Z,-5.02
2019-02-06T02:37:01.980Z,-5.07
2019-02-06T02:39:29.037Z,-5.06
2019-02-06T02:41:56.408Z,-5.05
2019-02-06T02:44:23.452Z,-5.04
2019-02-06T02:46:50.510Z,-5.09
2019-02-06T02:49:17.622Z,-5.09
2019-02-06T02:51:44.690Z,-5.06
2019-02-06T02:54:11.722Z,-5.10
2019-02-06T02:56:38.759Z,-5.12
2019-02-06T02:59:05.783Z,-5.11
2019-02-06T03:01:44.089Z,-5.15
2019-02-06T03:04:31.907Z,-5.20
2019-02-06T03:06:58.935Z,-5.20
2019-02-06T03:09:25.976Z,-5.24
2019-02-06T03:11:53.400Z,-5.26
2019-02-06T03:14:20.454Z,-5.23
2019-02-06T03:16:47.505Z,-5.22
2019-02-06T03:19:14.515Z,-5.22
2019-02-06T03:21:41.538Z,-5.24
2019-02-06T03:24:08.568Z,-5.28
2019-02-06T03:26:35.602Z,-5.32
2019-02-06T03:29:02.950Z,-5.34
2019-02-06T03:31:30.303Z,-5.35
2019-02-06T03:33:57.344Z,-5.46
2019-02-06T03:36:24.383Z,-5.49
2019-02-06T03:38:52.361Z,-5.53
2019-02-06T03:41:19.406Z,-5.58
2019-02-06T03:43:46.422Z,-5.57
2019-02-06T03:46:13.475Z,-5.49
2019-02-06T03:48:40.802Z,-5.47
2019-02-06T03:51:07.835Z,-5.41
2019-02-06T03:53:34.888Z,-5.35
2019-02-06T03:56:01.937Z,-5.31
2019-02-06T03:58:28.993Z,-5.32
2019-02-06T04:00:56.033Z,-5.37
2019-02-06T04:03:23.061Z,-5.40
2019-02-06T04:05:50.097Z,-5.40
2019-02-06T04:08:17.500Z,-5.39
2019-02-06T04:10:44.531Z,-5.36
2019-02-06T04:13:11.569Z,-5.34
2019-02-06T04:15:38.622Z,-5.39
2019-02-06T04:18:05.663Z,-5.40
2019-02-06T04:20:32.741Z,-5.41
2019-02-06T04:22:59.781Z,-5.53
2019-02-06T04:25:26.838Z,-5.57
2019-02-06T04:27:53.872Z,-5.52
2019-02-06T04:30:20.889Z,-5.51
2019-02-06T04:32:48.039Z,-5.54
2019-02-06T04:35:15.167Z,-5.55
2019-02-06T04:37:42.181Z,-5.50
2019-02-06T04:40:11.913Z,-5.52
2019-02-06T04:42:38.933Z,-5.51
2019-02-06T04:45:07.002Z,-5.53
2019-02-06T04:47:34.043Z,-5.53
2019-02-06T04:50:01.114Z,-5.52
2019-02-06T04:52:28.111Z,-5.52
2019-02-06T04:54:55.162Z,-5.54
2019-02-06T04:57:22.199Z,-5.69
2019-02-06T04:59:49.238Z,-5.77
2019-02-06T05:02:16.280Z,-5.77
2019-02-06T05:04:43.497Z,-5.76
2019-02-06T05:07:18.602Z,-5.84
2019-02-06T05:09:39.500Z,-5.95
2019-02-06T05:12:09.525Z,-5.94
2019-02-06T05:14:35.498Z,-6.02
2019-02-06T05:17:02.571Z,-6.05
2019-02-06T05:19:29.572Z,-5.98
2019-02-06T05:21:56.921Z,-5.94
2019-02-06T05:24:23.949Z,-5.99
2019-02-06T05:26:51.085Z,-6.03
2019-02-06T05:29:18.144Z,-6.04
2019-02-06T05:31:45.215Z,-5.17
2019-02-06T05:34:12.256Z,-4.33
2019-02-06T05:36:39.326Z,-3.90
2019-02-06T05:39:07.346Z,-4.22
2019-02-06T05:41:34.690Z,-4.56
2019-02-06T05:44:01.753Z,-4.79
2019-02-06T05:46:28.782Z,-5.01
2019-02-06T05:48:55.820Z,-5.13
2019-02-06T05:51:22.870Z,-5.19
2019-02-06T05:53:49.917Z,-5.38
2019-02-06T05:56:16.992Z,-5.44
2019-02-06T05:58:44.031Z,-5.43
2019-02-06T06:01:11.357Z,-5.46
2019-02-06T06:03:38.412Z,-5.67
2019-02-06T06:06:05.455Z,-5.73
2019-02-06T06:08:32.499Z,-5.71
2019-02-06T06:10:59.531Z,-5.68
2019-02-06T06:13:26.576Z,-5.70
2019-02-06T06:15:53.639Z,-5.72
2019-02-06T06:18:21.972Z,-5.74
2019-02-06T06:20:49.395Z,-5.70
2019-02-06T06:23:16.778Z,-5.66
2019-02-06T06:25:43.949Z,-5.68
2019-02-06T06:28:10.979Z,-5.69
2019-02-06T06:30:38.048Z,-5.69
2019-02-06T06:33:05.079Z,-5.71
2019-02-06T06:35:32.115Z,-5.70
2019-02-06T06:38:02.881Z,-5.69
2019-02-06T06:40:28.136Z,-5.63
2019-02-06T06:42:55.171Z,-5.62
2019-02-06T06:45:22.742Z,-5.57
2019-02-06T06:47:50.006Z,-5.55
2019-02-06T06:50:18.769Z,-5.52
2019-02-06T06:52:45.822Z,-5.52
2019-02-06T06:55:13.514Z,-5.49
2019-02-06T06:57:40.963Z,-5.46
2019-02-06T07:00:12.268Z,-5.42
2019-02-06T07:02:39.333Z,-5.38
2019-02-06T07:05:06.814Z,-5.41
2019-02-06T07:07:33.869Z,-5.39
2019-02-06T07:10:00.937Z,-5.35
2019-02-06T07:12:27.959Z,-5.33
2019-02-06T07:14:55.312Z,-5.34
2019-02-06T07:17:22.349Z,-5.37
2019-02-06T07:19:49.397Z,-5.37
2019-02-06T07:22:16.454Z,-5.34
2019-02-06T07:24:43.508Z,-5.06
2019-02-06T07:27:10.605Z,-3.64
2019-02-06T07:29:37.654Z,-2.31
2019-02-06T07:32:04.695Z,-0.98
2019-02-06T07:34:31.937Z,-0.25
2019-02-06T07:36:58.982Z,0.41
2019-02-06T07:39:26.015Z,0.91
2019-02-06T07:41:53.088Z,0.48
2019-02-06T07:44:20.126Z,-0.11
2019-02-06T07:46:47.191Z,-0.93
2019-02-06T07:49:14.233Z,-1.65
2019-02-06T07:51:41.292Z,-2.27
2019-02-06T07:54:08.328Z,-2.69
2019-02-06T07:56:35.391Z,-3.00
2019-02-06T07:59:02.444Z,-3.22
2019-02-06T08:01:29.470Z,-3.39
2019-02-06T08:03:56.502Z,-3.69
2019-02-06T08:06:23.539Z,-3.89
2019-02-06T08:08:50.574Z,-3.97
2019-02-06T08:11:17.605Z,-4.02
2019-02-06T08:13:44.662Z,-4.05
2019-02-06T08:16:11.701Z,-4.02
2019-02-06T08:18:38.843Z,-3.98
2019-02-06T08:21:05.896Z,-3.96
2019-02-06T08:23:32.935Z,-3.95
2019-02-06T08:25:59.978Z,-3.97
2019-02-06T08:28:26.995Z,-3.93
2019-02-06T08:30:54.453Z,-3.94
2019-02-06T08:33:21.483Z,-3.91
2019-02-06T08:35:48.521Z,-3.84
2019-02-06T08:38:15.551Z,-3.79
2019-02-06T08:40:42.609Z,-3.80
2019-02-06T08:43:09.747Z,-3.79
2019-02-06T08:45:36.791Z,-3.71
2019-02-06T08:48:04.011Z,-3.61
2019-02-06T08:50:31.190Z,-3.55
2019-02-06T08:52:58.218Z,-3.52
2019-02-06T08:55:26.729Z,-3.54
2019-02-06T08:57:53.991Z,-3.54
2019-02-06T09:00:26.296Z,-3.52
2019-02-06T09:02:53.439Z,-3.50
2019-02-06T09:05:20.508Z,-3.49
2019-02-06T09:07:47.843Z,-3.45
2019-02-06T09:10:16.385Z,-3.34
2019-02-06T09:12:43.441Z,-3.19
2019-02-06T09:15:11.209Z,-3.05
2019-02-06T09:17:38.241Z,-2.95
2019-02-06T09:20:08.612Z,-2.90
2019-02-06T09:22:35.653Z,-2.71
2019-02-06T09:25:03.201Z,-2.58
2019-02-06T09:27:30.266Z,-2.61
2019-02-06T09:29:57.326Z,-2.62
2019-02-06T09:32:24.378Z,-2.65
2019-02-06T09:34:51.434Z,-2.69
2019-02-06T09:37:18.462Z,-2.59
2019-02-06T09:39:45.537Z,-2.48
2019-02-06T09:42:12.606Z,-2.40
2019-02-06T09:44:39.778Z,-2.37
2019-02-06T09:47:06.809Z,-2.41
2019-02-06T09:49:33.869Z,-2.42
2019-02-06T09:52:00.907Z,-2.42
2019-02-06T09:54:27.967Z,-2.42
2019-02-06T09:56:55.011Z,-2.40
2019-02-06T09:59:22.064Z,-2.36
2019-02-06T10:01:49.109Z,-2.32
2019-02-06T10:04:16.170Z,-2.23
2019-02-06T10:06:43.194Z,-2.20
2019-02-06T10:09:10.253Z,-2.12
2019-02-06T10:11:37.304Z,-2.10
2019-02-06T10:14:04.356Z,-2.06
2019-02-06T10:16:31.408Z,-2.11
2019-02-06T10:18:58.440Z,-2.20
2019-02-06T10:21:25.699Z,-2.41
2019-02-06T10:23:52.790Z,-2.57
2019-02-06T10:26:19.881Z,-2.62
2019-02-06T10:28:46.939Z,-2.69
2019-02-06T10:31:14.005Z,-2.65
2019-02-06T10:33:41.068Z,-2.52
2019-02-06T10:36:08.132Z,-2.38
2019-02-06T10:38:35.180Z,-2.22
2019-02-06T10:41:04.564Z,-2.08
2019-02-06T10:43:35.064Z,-2.00
2019-02-06T10:46:00.366Z,-2.05
2019-02-06T10:48:27.420Z,-1.99
2019-02-06T10:50:54.474Z,-1.84
2019-02-06T10:53:21.644Z,-1.79
2019-02-06T10:55:48.686Z,-1.77
2019-02-06T10:58:16.039Z,-1.68
2019-02-06T11:00:46.259Z,-1.80
2019-02-06T11:03:13.322Z,-1.72
2019-02-06T11:05:40.567Z,-1.49
2019-02-06T11:08:07.607Z,-1.31
2019-02-06T11:10:34.692Z,-1.24
2019-02-06T11:13:02.052Z,-1.13
2019-02-06T11:15:29.627Z,-1.01
2019-02-06T11:17:56.765Z,-0.92
2019-02-06T11:20:24.320Z,-0.76
2019-02-06T11:22:51.367Z,-0.67
2019-02-06T11:25:18.426Z,-0.39
2019-02-06T11:27:45.481Z,-0.13
2019-02-06T11:30:15.371Z,-0.01
2019-02-06T11:32:42.542Z,0.04
2019-02-06T11:35:09.955Z,-0.01
2019-02-06T11:37:37.004Z,-0.05
2019-02-06T11:40:06.147Z,-0.12
2019-02-06T11:42:33.189Z,-0.15
2019-02-06T11:45:00.239Z,-0.23
2019-02-06T11:47:27.323Z,-0.34
2019-02-06T11:49:56.578Z,-0.31
2019-02-06T11:52:23.876Z,-0.40
2019-02-06T11:54:50.955Z,-0.36
2019-02-06T11:57:18.043Z,-0.32
2019-02-06T11:59:45.110Z,-0.22
2019-02-06T12:02:13.215Z,-0.31
2019-02-06T12:04:40.425Z,-0.15
2019-02-06T12:07:07.495Z,-0.15
2019-02-06T12:09:34.846Z,-0.21
2019-02-06T12:12:01.916Z,-0.17
2019-02-06T12:14:29.007Z,-0.23
2019-02-06T12:16:56.064Z,-0.23
2019-02-06T12:19:23.143Z,-0.26
2019-02-06T12:21:50.192Z,-0.30
2019-02-06T12:24:17.271Z,-0.19
2019-02-06T12:26:44.336Z,-0.45
2019-02-06T12:29:11.929Z,-0.45
2019-02-06T12:31:39.026Z,-0.50
2019-02-06T12:34:06.062Z,-0.48
2019-02-06T12:36:33.108Z,-0.61
2019-02-06T12:39:00.174Z,-0.76
2019-02-06T12:41:27.253Z,-0.88
2019-02-06T12:43:54.310Z,-0.94
2019-02-06T12:46:21.360Z,-0.99
2019-02-06T12:48:48.428Z,-1.02
2019-02-06T12:51:15.498Z,-0.96
2019-02-06T12:53:42.532Z,-0.83
2019-02-06T12:56:09.612Z,-0.67
2019-02-06T12:58:36.700Z,-0.53
2019-02-06T13:01:04.506Z,-0.39
2019-02-06T13:03:31.576Z,-0.26
2019-02-06T13:05:58.614Z,-0.10
2019-02-06T13:08:25.670Z,-0.02
2019-02-06T13:10:52.751Z,0.00
2019-02-06T13:13:19.838Z,0.05
2019-02-06T13:15:47.561Z,0.08
2019-02-06T13:18:14.689Z,0.12
2019-02-06T13:20:41.751Z,0.13
2019-02-06T13:23:09.679Z,0.18
2019-02-06T13:25:36.768Z,0.13
2019-02-06T13:28:04.401Z,0.05
2019-02-06T13:30:33.773Z,0.03
2019-02-06T13:33:00.873Z,0.07
2019-02-06T13:35:27.963Z,0.07
2019-02-06T13:37:55.023Z,-0.02
2019-02-06T13:40:22.794Z,-0.01
2019-02-06T13:42:49.871Z,-0.01
2019-02-06T13:45:22.214Z,-0.02
2019-02-06T13:47:49.391Z,-0.10
2019-02-06T13:50:22.121Z,-0.17
2019-02-06T13:52:45.761Z,-0.19
2019-02-06T13:55:14.586Z,-0.17
2019-02-06T13:57:41.711Z,-0.18
2019-02-06T14:00:14.619Z,-0.19
2019-02-06T14:02:42.117Z,-0.19
2019-02-06T14:05:09.555Z,-0.18
2019-02-06T14:07:36.629Z,-0.14
2019-02-06T14:10:04.477Z,-0.07
2019-02-06T14:12:31.540Z,-0.10
2019-02-06T14:14:58.611Z,-0.12
2019-02-06T14:17:25.690Z,-0.20
2019-02-06T14:19:53.164Z,-0.14
2019-02-06T14:22:20.260Z,-0.09
2019-02-06T14:25:05.696Z,-0.07
2019-02-06T14:28:00.668Z,-0.06
2019-02-06T14:30:48.361Z,-0.17
2019-02-06T14:33:46.944Z,-0.14
2019-02-06T14:36:50.465Z,-0.16
2019-02-06T14:39:30.711Z,-0.19
2019-02-06T14:42:32.224Z,-0.24
2019-02-06T14:45:28.304Z,-0.35
2019-02-06T14:48:35.076Z,-0.56
2019-02-06T14:51:11.739Z,-0.56
2019-02-06T14:54:20.645Z,-0.70
2019-02-06T14:57:15.996Z,-0.70
2019-02-06T15:00:26.938Z,-0.83
2019-02-06T15:03:25.540Z,-0.84
2019-02-06T15:06:34.752Z,-0.75
2019-02-06T15:09:35.946Z,-0.50
2019-02-06T15:12:44.961Z,0.61
2019-02-06T15:16:05.701Z,1.72
2019-02-06T15:18:48.545Z,1.41
2019-02-06T15:22:04.820Z,0.69
2019-02-06T15:25:01.961Z,0.15
2019-02-06T15:28:03.030Z,-0.39
2019-02-06T15:31:23.901Z,-0.73
2019-02-06T15:34:28.010Z,-0.90
2019-02-06T15:37:36.073Z,-1.03
2019-02-06T15:40:36.851Z,-1.12
2019-02-06T15:43:19.485Z,-1.28
2019-02-06T15:46:16.885Z,-1.48
2019-02-06T15:49:28.777Z,-1.56
2019-02-06T15:52:18.978Z,-1.66
2019-02-06T15:55:36.915Z,-1.77
2019-02-06T15:58:44.731Z,-1.73
2019-02-06T16:01:34.643Z,-1.85
2019-02-06T16:04:41.890Z,-1.93
2019-02-06T16:07:35.801Z,-1.94
2019-02-06T16:10:48.033Z,-2.04
2019-02-06T16:13:39.264Z,-2.10
2019-02-06T16:16:53.892Z,-2.19
2019-02-06T16:20:05.969Z,-2.26
2019-02-06T16:23:04.407Z,-2.31
2019-02-06T16:26:07.191Z,-2.33
2019-02-06T16:28:48.632Z,-2.36
2019-02-06T16:31:56.399Z,-2.35
2019-02-06T16:34:41.860Z,-2.39
2019-02-06T16:37:28.620Z,-2.43
2019-02-06T16:40:29.893Z,-2.49
2019-02-06T16:43:33.028Z,-2.50
2019-02-06T16:46:42.489Z,-2.50
2019-02-06T16:49:52.957Z,-2.56
2019-02-06T16:53:03.469Z,-2.65
2019-02-06T16:56:16.002Z,-2.76
2019-02-06T16:59:15.370Z,-2.80
2019-02-06T17:02:18.740Z,-2.83
2019-02-06T17:05:30.784Z,-2.78
2019-02-06T17:08:16.354Z,-2.81
2019-02-06T17:10:58.680Z,-2.87
2019-02-06T17:14:00.137Z,-2.96
2019-02-06T17:17:14.286Z,-2.94
2019-02-06T17:20:34.684Z,-2.94
2019-02-06T17:23:45.525Z,-2.94
2019-02-06T17:26:33.142Z,-2.93
2019-02-06T17:29:52.005Z,-2.97
2019-02-06T17:33:12.946Z,-3.01
2019-02-06T17:36:10.806Z,-2.99
2019-02-06T17:39:09.964Z,-3.03
2019-02-06T17:42:00.381Z,-3.09
2019-02-06T17:44:50.684Z,-3.09
2019-02-06T17:47:55.934Z,-3.07
2019-02-06T17:51:08.416Z,-3.09
2019-02-06T17:53:38.500Z,-3.09
2019-02-06T17:56:06.527Z,-3.08
2019-02-06T17:58:54.262Z,-3.11
2019-02-06T18:04:27.969Z,-3.17
2019-02-06T18:06:55.613Z,-3.25
2019-02-06T18:09:22.997Z,-3.28
2019-02-06T18:11:51.531Z,-3.30
2019-02-06T18:17:21.906Z,-3.32
2019-02-06T18:19:49.524Z,-3.36
2019-02-06T19:20:59.234Z,-3.78
2019-02-06T19:23:26.566Z,-3.80
2019-02-06T19:26:21.512Z,-3.86
2019-02-06T19:28:48.741Z,-3.90
2019-02-06T19:31:16.066Z,-3.92
2019-02-06T19:33:44.280Z,-3.92
2019-02-06T19:36:12.646Z,-3.91
2019-02-06T19:42:02.482Z,-3.87
2019-02-06T19:44:32.500Z,-3.92
2019-02-06T19:46:59.921Z,-3.94
2019-02-06T19:49:27.873Z,-3.96
2019-02-06T19:51:56.624Z,-3.96
2019-02-06T19:54:26.032Z,-4.00
2019-02-06T19:56:54.965Z,-4.00
2019-02-06T19:59:22.698Z,-4.00
2019-02-06T20:01:50.388Z,-4.02
2019-02-06T20:04:18.269Z,-4.07
2019-02-06T20:06:57.990Z,-4.12
2019-02-06T20:09:25.749Z,-4.20
2019-02-06T20:11:53.342Z,-4.17
2019-02-06T20:14:21.201Z,-4.21
2019-02-06T20:16:48.594Z,-4.23
2019-02-06T20:19:16.751Z,-4.28
2019-02-06T20:21:46.104Z,-4.38
2019-02-06T20:24:13.539Z,-4.51
2019-02-06T20:26:41.947Z,-4.67
2019-02-06T20:29:09.314Z,-4.76
2019-02-06T20:31:36.940Z,-4.82
2019-02-06T20:34:05.658Z,-4.90
2019-02-06T20:36:33.298Z,-4.93
2019-02-06T20:39:03.115Z,-4.85
2019-02-06T20:41:30.366Z,-4.78
2019-02-06T20:43:57.504Z,-4.76
2019-02-06T20:46:24.837Z,-4.74
2019-02-06T20:48:57.391Z,-4.72
2019-02-06T20:51:24.596Z,-4.69
2019-02-06T20:53:52.002Z,-4.69
2019-02-06T20:56:22.839Z,-4.70
2019-02-06T20:58:52.635Z,-4.72
2019-02-06T21:01:20.149Z,-4.69
2019-02-06T21:03:47.675Z,-4.70
2019-02-06T21:06:14.887Z,-4.66
2019-02-06T21:08:42.073Z,-4.64
2019-02-06T21:11:10.091Z,-4.60
2019-02-06T21:13:37.287Z,-4.55
2019-02-06T21:16:04.790Z,-4.49
2019-02-06T21:18:32.049Z,-4.50
2019-02-06T21:20:59.106Z,-4.54
2019-02-06T21:23:27.000Z,-4.62
2019-02-06T21:25:54.388Z,-4.65
2019-02-06T21:28:21.415Z,-4.72
2019-02-06T21:30:48.591Z,-4.78
2019-02-06T21:33:15.783Z,-4.81
2019-02-06T21:35:43.084Z,-4.82
2019-02-06T21:38:10.157Z,-4.82
2019-02-06T21:40:37.231Z,-4.79
2019-02-06T21:43:04.780Z,-4.76
2019-02-06T21:45:31.857Z,-4.77
2019-02-06T21:47:59.254Z,-4.76
2019-02-06T21:50:46.041Z,-4.74
2019-02-06T21:53:13.064Z,-4.71
2019-02-06T21:55:40.159Z,-4.77
2019-02-06T22:00:53.768Z,-4.90
2019-02-06T22:03:21.093Z,-4.98
2019-02-06T22:05:48.142Z,-5.01
2019-02-06T22:08:15.151Z,-4.98
2019-02-06T22:10:42.244Z,-4.92
2019-02-06T22:13:09.260Z,-4.88
2019-02-06T22:15:36.829Z,-4.84
2019-02-06T22:18:03.811Z,-4.82
2019-02-06T22:20:31.132Z,-4.85
2019-02-06T22:22:58.186Z,-4.89
2019-02-06T22:25:25.183Z,-4.89
2019-02-06T22:27:52.196Z,-4.91
2019-02-06T22:30:21.103Z,-4.92
2019-02-06T22:32:48.099Z,-4.89
2019-02-06T22:35:15.044Z,-4.87
2019-02-06T22:37:42.401Z,-4.86
2019-02-06T22:40:11.697Z,-4.89
2019-02-06T22:42:38.725Z,-4.96
2019-02-06T22:45:07.782Z,-4.99
2019-02-06T22:47:34.767Z,-4.92
2019-02-06T22:50:01.735Z,-4.87
2019-02-06T22:52:28.899Z,-4.85
2019-02-06T22:54:56.186Z,-4.86
2019-02-06T22:57:23.216Z,-4.92
2019-02-06T22:59:50.199Z,-4.95
2019-02-06T23:02:17.273Z,-4.97
2019-02-06T23:04:44.269Z,-4.93
2019-02-06T23:07:11.227Z,-4.87
2019-02-06T23:09:38.467Z,-4.89
2019-02-06T23:12:05.737Z,-4.87
2019-02-06T23:14:33.022Z,-4.85
2019-02-06T23:17:00.464Z,-4.80
2019-02-06T23:19:27.409Z,-4.77
2019-02-06T23:21:54.779Z,-4.79
2019-02-06T23:24:21.813Z,-4.79
2019-02-06T23:26:48.829Z,-4.79
2019-02-06T23:29:16.162Z,-4.76
2019-02-06T23:31:43.203Z,-4.75
2019-02-06T23:34:10.183Z,-4.75
2019-02-06T23:36:37.200Z,-4.76
2019-02-06T23:42:31.749Z,-4.81
2019-02-06T23:44:58.708Z,-4.84
2019-02-06T23:47:25.794Z,-4.83
2019-02-06T23:49:52.790Z,-4.83
2019-02-06T23:52:19.892Z,-4.85
2019-02-06T23:54:46.890Z,-4.89
2019-02-06T23:57:14.154Z,-4.94
2019-02-06T23:59:41.168Z,-4.97
